CheckWX is a tool to help pilots better visualize weather data.  It is not intended as a substitute for an official pre-flight weather briefing.

20:34:27 UTC

LIBG TAF
Taranto-Grottaglie "Marcello Arlotta" Airport
Grottaglie, Italy
TAF LIBG 221700Z 2218/2303 36008KT CAVOK

Mar-22@
18:00 UTC

Mar-22 @ 18:00 UTC

Mar-23@
03:00 UTC

Mar-23 @ 03:00 UTC

TAF LIBG 221700Z 2218/2303 36008KT CAVOK
Wind
  • 360° at 8 KTS
Conditions
No significant weather
Cloud Levels
  • No significant clouds